Lake Superior Provincial Park, Ontario

Past 24 Hour Conditions

This table is a summary of hourly weather conditions for the past 24 hours. This summary includes the following parameters: temperature, humidity, dew point, wind speed and direction, air pressure, visibility and/or wind chill and humidex.
Date / Time
(EDT)
Conditions Temp (°F) Humidity (%) Dew Point (°F) Wind (mph) Pressure (inches) Visibility (miles)
29 July 2014
7:00 N/A 52 99 51 NNE 2 29.9 N/A
6:00 N/A 52 99 51 calm 29.9 N/A
5:00 N/A 51 98 51 calm 29.9 N/A
4:00 N/A 50 98 49 calm 29.9 N/A
3:00 N/A 49 97 48 calm 29.9 N/A
2:00 N/A 50 98 50 SSE 3 29.9 N/A
1:00 N/A 50 98 50 SSE 2 29.9 N/A
00:00 N/A 50 98 50 calm 29.9 N/A
28 July 2014
23:00 N/A 50 97 49 calm 29.9 N/A
22:00 N/A 50 96 49 calm 29.9 N/A
21:00 N/A 52 93 50 SW 4 29.9 N/A
20:00 N/A 53 91 50 SW 4 30.0 N/A
19:00 N/A 55 84 51 calm 30.0 N/A
18:00 N/A 58 75 50 WNW 2 30.0 N/A
17:00 N/A 59 67 48 WSW 5 30.0 N/A
16:00 N/A 57 67 46 W 2 30.0 N/A
15:00 N/A 58 61 45 W 5 30.0 N/A
14:00 N/A 60   55 44 NW 8 30.0 N/A
13:00 N/A 60   53 43 WNW 8 30.0 N/A
12:00 N/A 59 52 42 WNW 7 30.0 N/A
11:00 N/A 59 62 46 NE 2 30.0 N/A
10:00 N/A 58 60 44 NNE 5 30.0 N/A
9:00 N/A 54 71 45 NNE 2 30.0 N/A
8:00 N/A 48 88 45 NNW 2 30.0 N/A
7:00 N/A 47   87 44 NNE 3 30.0 N/A
N/A
Not available
 ↑ 
Highest temperature
 ↓ 
Lowest temperature

If you require additional historical weather information, please visit Climate Data Online.